sensor_id;sensor_type;location;lat;lon;timestamp;P1;durP1;ratioP1;P2;durP2;ratioP2
11191;SDS011;5652;48.406;10.820;2022-10-16T00:00:31;6.57;;;4.38;;
11191;SDS011;5652;48.406;10.820;2022-10-16T00:02:58;6.80;;;4.07;;
11191;SDS011;5652;48.406;10.820;2022-10-16T00:05:26;5.87;;;3.30;;
11191;SDS011;5652;48.406;10.820;2022-10-16T00:07:53;8.73;;;4.93;;
11191;SDS011;5652;48.406;10.820;2022-10-16T00:10:21;6.67;;;4.20;;
11191;SDS011;5652;48.406;10.820;2022-10-16T00:12:48;7.53;;;3.20;;
11191;SDS011;5652;48.406;10.820;2022-10-16T00:15:15;6.23;;;2.70;;
11191;SDS011;5652;48.406;10.820;2022-10-16T00:17:42;4.35;;;2.28;;
11191;SDS011;5652;48.406;10.820;2022-10-16T00:20:09;4.13;;;2.10;;
11191;SDS011;5652;48.406;10.820;2022-10-16T00:22:38;3.13;;;2.20;;
11191;SDS011;5652;48.406;10.820;2022-10-16T00:25:05;4.82;;;2.10;;
11191;SDS011;5652;48.406;10.820;2022-10-16T00:27:32;6.47;;;1.98;;
11191;SDS011;5652;48.406;10.820;2022-10-16T00:30:00;4.50;;;1.80;;
11191;SDS011;5652;48.406;10.820;2022-10-16T00:32:27;4.00;;;1.98;;
11191;SDS011;5652;48.406;10.820;2022-10-16T00:34:54;3.63;;;2.05;;
11191;SDS011;5652;48.406;10.820;2022-10-16T00:37:21;3.38;;;2.13;;
11191;SDS011;5652;48.406;10.820;2022-10-16T00:39:50;5.50;;;2.00;;
11191;SDS011;5652;48.406;10.820;2022-10-16T00:42:17;2.35;;;1.70;;
11191;SDS011;5652;48.406;10.820;2022-10-16T00:44:47;2.78;;;1.83;;
11191;SDS011;5652;48.406;10.820;2022-10-16T00:47:15;4.30;;;2.73;;
11191;SDS011;5652;48.406;10.820;2022-10-16T00:49:44;3.60;;;2.00;;
11191;SDS011;5652;48.406;10.820;2022-10-16T00:52:12;2.60;;;1.85;;
11191;SDS011;5652;48.406;10.820;2022-10-16T00:54:40;4.07;;;2.10;;
11191;SDS011;5652;48.406;10.820;2022-10-16T00:57:08;2.60;;;1.83;;
11191;SDS011;5652;48.406;10.820;2022-10-16T00:59:36;3.50;;;2.10;;
11191;SDS011;5652;48.406;10.820;2022-10-16T01:02:04;4.68;;;2.03;;
11191;SDS011;5652;48.406;10.820;2022-10-16T01:04:33;3.20;;;1.60;;
11191;SDS011;5652;48.406;10.820;2022-10-16T01:07:03;3.35;;;1.90;;
11191;SDS011;5652;48.406;10.820;2022-10-16T01:09:34;3.40;;;1.90;;
11191;SDS011;5652;48.406;10.820;2022-10-16T01:12:05;3.40;;;2.33;;
11191;SDS011;5652;48.406;10.820;2022-10-16T01:14:36;4.40;;;1.90;;
11191;SDS011;5652;48.406;10.820;2022-10-16T01:17:06;4.85;;;1.80;;
11191;SDS011;5652;48.406;10.820;2022-10-16T01:19:38;2.85;;;1.60;;
11191;SDS011;5652;48.406;10.820;2022-10-16T01:22:08;2.22;;;1.70;;
11191;SDS011;5652;48.406;10.820;2022-10-16T01:24:37;5.23;;;1.83;;
11191;SDS011;5652;48.406;10.820;2022-10-16T01:27:13;4.80;;;2.40;;
11191;SDS011;5652;48.406;10.820;2022-10-16T01:29:44;4.20;;;1.70;;
11191;SDS011;5652;48.406;10.820;2022-10-16T01:32:16;3.87;;;1.90;;
11191;SDS011;5652;48.406;10.820;2022-10-16T01:34:46;5.30;;;2.17;;
11191;SDS011;5652;48.406;10.820;2022-10-16T01:37:15;2.78;;;2.00;;
11191;SDS011;5652;48.406;10.820;2022-10-16T01:39:45;3.83;;;2.20;;
11191;SDS011;5652;48.406;10.820;2022-10-16T01:42:14;3.85;;;1.92;;
11191;SDS011;5652;48.406;10.820;2022-10-16T01:44:43;3.37;;;1.90;;
11191;SDS011;5652;48.406;10.820;2022-10-16T01:47:13;3.05;;;1.80;;
11191;SDS011;5652;48.406;10.820;2022-10-16T01:49:40;3.47;;;1.95;;
11191;SDS011;5652;48.406;10.820;2022-10-16T01:52:09;3.60;;;2.00;;
11191;SDS011;5652;48.406;10.820;2022-10-16T01:54:37;4.47;;;2.00;;
11191;SDS011;5652;48.406;10.820;2022-10-16T01:57:04;6.00;;;2.23;;
11191;SDS011;5652;48.406;10.820;2022-10-16T01:59:35;5.00;;;2.40;;
11191;SDS011;5652;48.406;10.820;2022-10-16T02:02:04;3.58;;;2.22;;
11191;SDS011;5652;48.406;10.820;2022-10-16T02:04:33;4.90;;;2.17;;
11191;SDS011;5652;48.406;10.820;2022-10-16T02:07:01;4.90;;;2.30;;
11191;SDS011;5652;48.406;10.820;2022-10-16T02:09:28;4.40;;;2.20;;
11191;SDS011;5652;48.406;10.820;2022-10-16T02:11:56;5.47;;;2.13;;
11191;SDS011;5652;48.406;10.820;2022-10-16T02:14:27;5.13;;;2.22;;
11191;SDS011;5652;48.406;10.820;2022-10-16T02:16:56;4.47;;;2.17;;
11191;SDS011;5652;48.406;10.820;2022-10-16T02:19:23;4.47;;;2.38;;
11191;SDS011;5652;48.406;10.820;2022-10-16T02:21:51;4.13;;;2.45;;
11191;SDS011;5652;48.406;10.820;2022-10-16T02:24:22;3.10;;;2.20;;
11191;SDS011;5652;48.406;10.820;2022-10-16T02:26:51;4.50;;;2.13;;
11191;SDS011;5652;48.406;10.820;2022-10-16T02:29:20;3.92;;;2.28;;
11191;SDS011;5652;48.406;10.820;2022-10-16T02:31:50;3.05;;;2.17;;
11191;SDS011;5652;48.406;10.820;2022-10-16T02:34:19;4.30;;;2.30;;
11191;SDS011;5652;48.406;10.820;2022-10-16T02:36:48;4.60;;;2.42;;
11191;SDS011;5652;48.406;10.820;2022-10-16T02:39:15;7.25;;;4.20;;
11191;SDS011;5652;48.406;10.820;2022-10-16T02:41:43;6.78;;;3.60;;
11191;SDS011;5652;48.406;10.820;2022-10-16T02:44:10;13.30;;;6.25;;
11191;SDS011;5652;48.406;10.820;2022-10-16T02:46:38;12.43;;;7.28;;
11191;SDS011;5652;48.406;10.820;2022-10-16T02:49:05;9.32;;;4.43;;
11191;SDS011;5652;48.406;10.820;2022-10-16T02:51:33;14.48;;;4.53;;
11191;SDS011;5652;48.406;10.820;2022-10-16T02:54:01;5.45;;;3.20;;
11191;SDS011;5652;48.406;10.820;2022-10-16T02:56:28;11.95;;;6.57;;
11191;SDS011;5652;48.406;10.820;2022-10-16T02:58:56;11.25;;;5.20;;
11191;SDS011;5652;48.406;10.820;2022-10-16T03:01:23;5.60;;;2.78;;
11191;SDS011;5652;48.406;10.820;2022-10-16T03:03:50;4.38;;;2.10;;
11191;SDS011;5652;48.406;10.820;2022-10-16T03:06:17;3.17;;;2.10;;
11191;SDS011;5652;48.406;10.820;2022-10-16T03:08:46;5.47;;;2.40;;
11191;SDS011;5652;48.406;10.820;2022-10-16T03:11:13;5.00;;;2.20;;
11191;SDS011;5652;48.406;10.820;2022-10-16T03:13:40;4.13;;;1.90;;
11191;SDS011;5652;48.406;10.820;2022-10-16T03:16:07;2.53;;;1.92;;
11191;SDS011;5652;48.406;10.820;2022-10-16T03:18:34;3.33;;;2.05;;
11191;SDS011;5652;48.406;10.820;2022-10-16T03:21:01;2.58;;;1.70;;
11191;SDS011;5652;48.406;10.820;2022-10-16T03:23:29;2.90;;;1.70;;
11191;SDS011;5652;48.406;10.820;2022-10-16T03:25:57;4.40;;;2.00;;
11191;SDS011;5652;48.406;10.820;2022-10-16T03:28:25;2.43;;;2.00;;
11191;SDS011;5652;48.406;10.820;2022-10-16T03:30:52;3.92;;;1.90;;
11191;SDS011;5652;48.406;10.820;2022-10-16T03:33:19;3.37;;;1.83;;
11191;SDS011;5652;48.406;10.820;2022-10-16T03:35:50;2.55;;;1.80;;
11191;SDS011;5652;48.406;10.820;2022-10-16T03:38:18;3.70;;;1.90;;
11191;SDS011;5652;48.406;10.820;2022-10-16T03:40:45;3.20;;;2.17;;
11191;SDS011;5652;48.406;10.820;2022-10-16T03:43:14;3.30;;;2.05;;
11191;SDS011;5652;48.406;10.820;2022-10-16T03:45:41;4.07;;;1.77;;
11191;SDS011;5652;48.406;10.820;2022-10-16T03:48:08;2.10;;;1.80;;
11191;SDS011;5652;48.406;10.820;2022-10-16T03:50:36;4.55;;;1.92;;
11191;SDS011;5652;48.406;10.820;2022-10-16T03:53:03;2.90;;;2.22;;
11191;SDS011;5652;48.406;10.820;2022-10-16T03:55:30;6.83;;;3.33;;
11191;SDS011;5652;48.406;10.820;2022-10-16T03:57:57;2.60;;;1.80;;
11191;SDS011;5652;48.406;10.820;2022-10-16T04:00:26;2.58;;;1.90;;
11191;SDS011;5652;48.406;10.820;2022-10-16T04:02:53;2.30;;;1.75;;
11191;SDS011;5652;48.406;10.820;2022-10-16T04:05:20;4.68;;;1.90;;
11191;SDS011;5652;48.406;10.820;2022-10-16T04:07:47;2.60;;;1.60;;
11191;SDS011;5652;48.406;10.820;2022-10-16T04:10:14;1.98;;;1.60;;
11191;SDS011;5652;48.406;10.820;2022-10-16T04:12:41;3.53;;;1.92;;
11191;SDS011;5652;48.406;10.820;2022-10-16T04:15:08;3.15;;;1.80;;
11191;SDS011;5652;48.406;10.820;2022-10-16T04:17:37;3.08;;;1.88;;
11191;SDS011;5652;48.406;10.820;2022-10-16T04:20:05;3.47;;;1.80;;
11191;SDS011;5652;48.406;10.820;2022-10-16T04:22:32;3.50;;;1.90;;
11191;SDS011;5652;48.406;10.820;2022-10-16T04:24:59;2.92;;;1.75;;
11191;SDS011;5652;48.406;10.820;2022-10-16T04:27:26;2.95;;;1.80;;
11191;SDS011;5652;48.406;10.820;2022-10-16T04:29:56;3.72;;;1.83;;
11191;SDS011;5652;48.406;10.820;2022-10-16T04:32:23;3.33;;;1.90;;
11191;SDS011;5652;48.406;10.820;2022-10-16T04:34:51;2.58;;;1.70;;
11191;SDS011;5652;48.406;10.820;2022-10-16T04:37:18;4.15;;;1.98;;
11191;SDS011;5652;48.406;10.820;2022-10-16T04:39:46;2.70;;;1.70;;
11191;SDS011;5652;48.406;10.820;2022-10-16T04:42:13;4.43;;;1.80;;
11191;SDS011;5652;48.406;10.820;2022-10-16T04:44:40;5.10;;;1.60;;
11191;SDS011;5652;48.406;10.820;2022-10-16T04:47:07;3.53;;;1.73;;
11191;SDS011;5652;48.406;10.820;2022-10-16T04:49:34;4.53;;;1.70;;
11191;SDS011;5652;48.406;10.820;2022-10-16T04:52:02;2.60;;;1.77;;
11191;SDS011;5652;48.406;10.820;2022-10-16T04:54:29;3.67;;;2.30;;
11191;SDS011;5652;48.406;10.820;2022-10-16T04:56:57;2.90;;;2.20;;
11191;SDS011;5652;48.406;10.820;2022-10-16T04:59:24;7.00;;;2.10;;
11191;SDS011;5652;48.406;10.820;2022-10-16T05:01:51;5.13;;;1.90;;
11191;SDS011;5652;48.406;10.820;2022-10-16T05:04:18;2.78;;;2.10;;
11191;SDS011;5652;48.406;10.820;2022-10-16T05:06:45;3.20;;;2.07;;
11191;SDS011;5652;48.406;10.820;2022-10-16T05:09:13;4.75;;;2.55;;
11191;SDS011;5652;48.406;10.820;2022-10-16T05:11:41;5.70;;;2.33;;
11191;SDS011;5652;48.406;10.820;2022-10-16T05:14:08;5.13;;;2.03;;
11191;SDS011;5652;48.406;10.820;2022-10-16T05:16:35;4.57;;;2.30;;
11191;SDS011;5652;48.406;10.820;2022-10-16T05:19:02;4.57;;;2.30;;
11191;SDS011;5652;48.406;10.820;2022-10-16T05:21:29;7.13;;;2.20;;
11191;SDS011;5652;48.406;10.820;2022-10-16T05:23:56;4.93;;;2.30;;
11191;SDS011;5652;48.406;10.820;2022-10-16T05:26:25;5.72;;;2.42;;
11191;SDS011;5652;48.406;10.820;2022-10-16T05:28:52;3.37;;;2.40;;
11191;SDS011;5652;48.406;10.820;2022-10-16T05:31:19;2.83;;;2.17;;
11191;SDS011;5652;48.406;10.820;2022-10-16T05:33:46;4.50;;;2.05;;
11191;SDS011;5652;48.406;10.820;2022-10-16T05:36:13;3.07;;;2.13;;
11191;SDS011;5652;48.406;10.820;2022-10-16T05:38:41;5.47;;;2.35;;
11191;SDS011;5652;48.406;10.820;2022-10-16T05:41:08;4.85;;;3.13;;
11191;SDS011;5652;48.406;10.820;2022-10-16T05:43:37;7.97;;;3.50;;
11191;SDS011;5652;48.406;10.820;2022-10-16T05:46:04;4.32;;;2.92;;
11191;SDS011;5652;48.406;10.820;2022-10-16T05:48:32;4.60;;;2.50;;
11191;SDS011;5652;48.406;10.820;2022-10-16T05:51:01;5.13;;;2.42;;
11191;SDS011;5652;48.406;10.820;2022-10-16T05:53:31;5.40;;;2.35;;
11191;SDS011;5652;48.406;10.820;2022-10-16T05:55:58;4.80;;;1.90;;
11191;SDS011;5652;48.406;10.820;2022-10-16T05:58:28;6.60;;;2.20;;
11191;SDS011;5652;48.406;10.820;2022-10-16T06:00:57;5.70;;;2.00;;
11191;SDS011;5652;48.406;10.820;2022-10-16T06:03:28;2.55;;;1.90;;
11191;SDS011;5652;48.406;10.820;2022-10-16T06:05:55;2.80;;;2.10;;
11191;SDS011;5652;48.406;10.820;2022-10-16T06:08:28;3.53;;;2.03;;
11191;SDS011;5652;48.406;10.820;2022-10-16T06:11:01;4.45;;;2.20;;
11191;SDS011;5652;48.406;10.820;2022-10-16T06:13:28;3.40;;;2.10;;
11191;SDS011;5652;48.406;10.820;2022-10-16T06:15:57;5.25;;;2.70;;
11191;SDS011;5652;48.406;10.820;2022-10-16T06:18:25;3.93;;;2.30;;
11191;SDS011;5652;48.406;10.820;2022-10-16T06:20:55;5.05;;;2.30;;
11191;SDS011;5652;48.406;10.820;2022-10-16T06:23:27;4.20;;;2.13;;
11191;SDS011;5652;48.406;10.820;2022-10-16T06:26:03;3.15;;;2.13;;
11191;SDS011;5652;48.406;10.820;2022-10-16T06:28:38;2.95;;;2.50;;
11191;SDS011;5652;48.406;10.820;2022-10-16T06:31:07;9.27;;;2.33;;
11191;SDS011;5652;48.406;10.820;2022-10-16T06:33:35;3.00;;;2.00;;
11191;SDS011;5652;48.406;10.820;2022-10-16T06:36:02;6.60;;;1.65;;
11191;SDS011;5652;48.406;10.820;2022-10-16T06:38:30;2.20;;;1.80;;
11191;SDS011;5652;48.406;10.820;2022-10-16T06:40:57;2.63;;;1.40;;
11191;SDS011;5652;48.406;10.820;2022-10-16T06:43:24;1.80;;;1.45;;
11191;SDS011;5652;48.406;10.820;2022-10-16T06:45:51;3.28;;;1.42;;
11191;SDS011;5652;48.406;10.820;2022-10-16T06:48:20;4.37;;;1.50;;
11191;SDS011;5652;48.406;10.820;2022-10-16T06:50:55;4.35;;;1.40;;
11191;SDS011;5652;48.406;10.820;2022-10-16T06:53:22;1.67;;;1.15;;
11191;SDS011;5652;48.406;10.820;2022-10-16T06:55:49;2.90;;;1.50;;
11191;SDS011;5652;48.406;10.820;2022-10-16T06:58:16;3.53;;;1.40;;
11191;SDS011;5652;48.406;10.820;2022-10-16T07:00:43;3.20;;;1.80;;
11191;SDS011;5652;48.406;10.820;2022-10-16T07:03:10;1.80;;;1.60;;
11191;SDS011;5652;48.406;10.820;2022-10-16T07:05:39;2.00;;;1.50;;
11191;SDS011;5652;48.406;10.820;2022-10-16T07:08:07;4.18;;;1.70;;
11191;SDS011;5652;48.406;10.820;2022-10-16T07:10:34;2.40;;;1.63;;
11191;SDS011;5652;48.406;10.820;2022-10-16T07:13:10;2.22;;;1.60;;
11191;SDS011;5652;48.406;10.820;2022-10-16T07:15:38;1.80;;;1.40;;
11191;SDS011;5652;48.406;10.820;2022-10-16T07:18:06;6.22;;;1.50;;
11191;SDS011;5652;48.406;10.820;2022-10-16T07:20:33;2.45;;;1.48;;
11191;SDS011;5652;48.406;10.820;2022-10-16T07:23:03;2.85;;;1.40;;
11191;SDS011;5652;48.406;10.820;2022-10-16T07:25:39;2.38;;;1.50;;
11191;SDS011;5652;48.406;10.820;2022-10-16T07:28:06;4.10;;;1.50;;
11191;SDS011;5652;48.406;10.820;2022-10-16T07:30:35;2.28;;;1.40;;
11191;SDS011;5652;48.406;10.820;2022-10-16T07:36:01;1.58;;;1.30;;
11191;SDS011;5652;48.406;10.820;2022-10-16T07:38:29;2.75;;;1.45;;
11191;SDS011;5652;48.406;10.820;2022-10-16T07:40:57;5.53;;;1.50;;
11191;SDS011;5652;48.406;10.820;2022-10-16T07:43:24;2.27;;;1.50;;
11191;SDS011;5652;48.406;10.820;2022-10-16T07:45:54;2.85;;;1.70;;
11191;SDS011;5652;48.406;10.820;2022-10-16T07:48:28;3.28;;;1.38;;
11191;SDS011;5652;48.406;10.820;2022-10-16T07:50:57;2.20;;;1.40;;
11191;SDS011;5652;48.406;10.820;2022-10-16T07:53:25;2.50;;;1.52;;
11191;SDS011;5652;48.406;10.820;2022-10-16T07:55:54;3.42;;;1.70;;
11191;SDS011;5652;48.406;10.820;2022-10-16T07:58:23;2.90;;;1.50;;
11191;SDS011;5652;48.406;10.820;2022-10-16T08:00:50;2.80;;;1.40;;
11191;SDS011;5652;48.406;10.820;2022-10-16T08:03:17;1.75;;;1.40;;
11191;SDS011;5652;48.406;10.820;2022-10-16T08:05:44;2.53;;;1.60;;
11191;SDS011;5652;48.406;10.820;2022-10-16T08:08:12;5.28;;;1.60;;
11191;SDS011;5652;48.406;10.820;2022-10-16T08:10:40;3.05;;;1.50;;
11191;SDS011;5652;48.406;10.820;2022-10-16T08:13:08;2.55;;;1.50;;
11191;SDS011;5652;48.406;10.820;2022-10-16T08:15:36;2.80;;;1.23;;
11191;SDS011;5652;48.406;10.820;2022-10-16T08:18:04;2.38;;;1.40;;
11191;SDS011;5652;48.406;10.820;2022-10-16T08:20:31;3.63;;;1.33;;
11191;SDS011;5652;48.406;10.820;2022-10-16T08:22:59;2.75;;;1.30;;
11191;SDS011;5652;48.406;10.820;2022-10-16T08:25:26;2.83;;;1.50;;
11191;SDS011;5652;48.406;10.820;2022-10-16T08:28:03;2.30;;;1.42;;
11191;SDS011;5652;48.406;10.820;2022-10-16T08:30:45;5.75;;;1.60;;
11191;SDS011;5652;48.406;10.820;2022-10-16T08:33:26;3.20;;;1.50;;
11191;SDS011;5652;48.406;10.820;2022-10-16T08:35:54;2.10;;;1.30;;
11191;SDS011;5652;48.406;10.820;2022-10-16T08:38:21;2.30;;;1.40;;
11191;SDS011;5652;48.406;10.820;2022-10-16T08:40:48;1.60;;;1.33;;
11191;SDS011;5652;48.406;10.820;2022-10-16T08:43:19;2.38;;;1.40;;
11191;SDS011;5652;48.406;10.820;2022-10-16T08:45:52;2.10;;;1.50;;
11191;SDS011;5652;48.406;10.820;2022-10-16T08:48:26;1.80;;;1.33;;
11191;SDS011;5652;48.406;10.820;2022-10-16T08:50:56;4.72;;;1.55;;
11191;SDS011;5652;48.406;10.820;2022-10-16T08:53:33;2.67;;;1.50;;
11191;SDS011;5652;48.406;10.820;2022-10-16T08:56:21;2.00;;;1.20;;
11191;SDS011;5652;48.406;10.820;2022-10-16T08:58:58;3.13;;;1.30;;
11191;SDS011;5652;48.406;10.820;2022-10-16T09:01:49;2.93;;;1.20;;
11191;SDS011;5652;48.406;10.820;2022-10-16T09:04:26;1.90;;;1.10;;
11191;SDS011;5652;48.406;10.820;2022-10-16T09:07:09;2.67;;;1.00;;
11191;SDS011;5652;48.406;10.820;2022-10-16T09:09:42;1.50;;;1.05;;
11191;SDS011;5652;48.406;10.820;2022-10-16T09:12:32;2.55;;;1.40;;
11191;SDS011;5652;48.406;10.820;2022-10-16T09:15:14;2.75;;;1.45;;
11191;SDS011;5652;48.406;10.820;2022-10-16T09:17:48;1.20;;;1.10;;
11191;SDS011;5652;48.406;10.820;2022-10-16T09:20:23;1.20;;;1.10;;
11191;SDS011;5652;48.406;10.820;2022-10-16T09:23:08;1.10;;;1.00;;
11191;SDS011;5652;48.406;10.820;2022-10-16T09:25:46;1.98;;;1.23;;
11191;SDS011;5652;48.406;10.820;2022-10-16T09:28:18;1.73;;;1.20;;
11191;SDS011;5652;48.406;10.820;2022-10-16T09:30:48;1.65;;;0.95;;
11191;SDS011;5652;48.406;10.820;2022-10-16T09:33:21;1.35;;;1.00;;
11191;SDS011;5652;48.406;10.820;2022-10-16T09:36:02;1.60;;;1.00;;
11191;SDS011;5652;48.406;10.820;2022-10-16T09:38:34;1.60;;;1.10;;
11191;SDS011;5652;48.406;10.820;2022-10-16T09:41:02;2.88;;;1.20;;
11191;SDS011;5652;48.406;10.820;2022-10-16T09:43:32;1.70;;;1.17;;
11191;SDS011;5652;48.406;10.820;2022-10-16T09:46:02;1.77;;;1.17;;
11191;SDS011;5652;48.406;10.820;2022-10-16T09:48:33;2.30;;;1.10;;
11191;SDS011;5652;48.406;10.820;2022-10-16T09:51:03;1.55;;;1.00;;
11191;SDS011;5652;48.406;10.820;2022-10-16T09:53:40;1.65;;;1.20;;
11191;SDS011;5652;48.406;10.820;2022-10-16T09:56:09;1.27;;;1.00;;
11191;SDS011;5652;48.406;10.820;2022-10-16T09:58:41;3.13;;;1.10;;
11191;SDS011;5652;48.406;10.820;2022-10-16T10:01:11;1.52;;;1.25;;
11191;SDS011;5652;48.406;10.820;2022-10-16T10:03:41;2.20;;;1.10;;
11191;SDS011;5652;48.406;10.820;2022-10-16T10:06:16;2.67;;;1.40;;
11191;SDS011;5652;48.406;10.820;2022-10-16T10:08:54;3.67;;;1.30;;
11191;SDS011;5652;48.406;10.820;2022-10-16T10:14:03;1.65;;;1.40;;
11191;SDS011;5652;48.406;10.820;2022-10-16T10:16:31;3.20;;;1.30;;
11191;SDS011;5652;48.406;10.820;2022-10-16T10:18:59;3.80;;;1.47;;
11191;SDS011;5652;48.406;10.820;2022-10-16T10:21:26;2.53;;;1.52;;
11191;SDS011;5652;48.406;10.820;2022-10-16T10:23:56;2.72;;;1.63;;
11191;SDS011;5652;48.406;10.820;2022-10-16T10:26:25;2.05;;;1.30;;
11191;SDS011;5652;48.406;10.820;2022-10-16T10:28:55;3.97;;;1.50;;
11191;SDS011;5652;48.406;10.820;2022-10-16T10:31:26;2.10;;;1.33;;
11191;SDS011;5652;48.406;10.820;2022-10-16T10:33:55;4.00;;;1.33;;
11191;SDS011;5652;48.406;10.820;2022-10-16T10:36:27;3.80;;;1.20;;
11191;SDS011;5652;48.406;10.820;2022-10-16T10:38:56;3.28;;;1.65;;
11191;SDS011;5652;48.406;10.820;2022-10-16T10:41:33;1.27;;;1.10;;
11191;SDS011;5652;48.406;10.820;2022-10-16T10:44:06;1.40;;;1.20;;
11191;SDS011;5652;48.406;10.820;2022-10-16T10:46:35;1.75;;;1.30;;
11191;SDS011;5652;48.406;10.820;2022-10-16T10:49:09;1.83;;;1.10;;
11191;SDS011;5652;48.406;10.820;2022-10-16T10:51:53;1.23;;;1.00;;
11191;SDS011;5652;48.406;10.820;2022-10-16T10:54:28;1.13;;;1.02;;
11191;SDS011;5652;48.406;10.820;2022-10-16T10:57:00;2.10;;;1.27;;
11191;SDS011;5652;48.406;10.820;2022-10-16T10:59:41;1.55;;;1.10;;
11191;SDS011;5652;48.406;10.820;2022-10-16T11:02:18;1.45;;;1.05;;
11191;SDS011;5652;48.406;10.820;2022-10-16T11:07:36;2.00;;;1.33;;
11191;SDS011;5652;48.406;10.820;2022-10-16T11:10:09;3.90;;;1.40;;
11191;SDS011;5652;48.406;10.820;2022-10-16T11:12:39;1.77;;;1.20;;
11191;SDS011;5652;48.406;10.820;2022-10-16T11:15:11;1.42;;;1.20;;
11191;SDS011;5652;48.406;10.820;2022-10-16T11:17:41;1.40;;;1.10;;
11191;SDS011;5652;48.406;10.820;2022-10-16T11:20:13;2.75;;;1.00;;
11191;SDS011;5652;48.406;10.820;2022-10-16T11:22:42;2.08;;;1.00;;
11191;SDS011;5652;48.406;10.820;2022-10-16T11:25:12;1.38;;;1.20;;
11191;SDS011;5652;48.406;10.820;2022-10-16T11:27:41;3.55;;;1.17;;
11191;SDS011;5652;48.406;10.820;2022-10-16T11:30:13;1.30;;;1.20;;
11191;SDS011;5652;48.406;10.820;2022-10-16T11:32:47;1.45;;;1.20;;
11191;SDS011;5652;48.406;10.820;2022-10-16T11:35:17;1.50;;;1.00;;
11191;SDS011;5652;48.406;10.820;2022-10-16T11:37:48;1.60;;;1.10;;
11191;SDS011;5652;48.406;10.820;2022-10-16T11:40:19;1.25;;;1.10;;
11191;SDS011;5652;48.406;10.820;2022-10-16T11:42:59;1.20;;;1.10;;
11191;SDS011;5652;48.406;10.820;2022-10-16T11:45:31;2.80;;;1.10;;
11191;SDS011;5652;48.406;10.820;2022-10-16T11:48:00;1.63;;;1.30;;
11191;SDS011;5652;48.406;10.820;2022-10-16T11:50:29;1.15;;;1.00;;
11191;SDS011;5652;48.406;10.820;2022-10-16T11:53:01;1.38;;;1.10;;
11191;SDS011;5652;48.406;10.820;2022-10-16T11:55:31;1.73;;;1.20;;
11191;SDS011;5652;48.406;10.820;2022-10-16T11:58:00;1.33;;;1.02;;
11191;SDS011;5652;48.406;10.820;2022-10-16T12:00:28;1.70;;;1.10;;
11191;SDS011;5652;48.406;10.820;2022-10-16T12:02:59;1.20;;;1.00;;
11191;SDS011;5652;48.406;10.820;2022-10-16T12:05:33;1.55;;;1.00;;
11191;SDS011;5652;48.406;10.820;2022-10-16T12:08:06;2.25;;;1.23;;
11191;SDS011;5652;48.406;10.820;2022-10-16T12:10:36;1.45;;;1.00;;
11191;SDS011;5652;48.406;10.820;2022-10-16T12:13:03;3.08;;;1.10;;
11191;SDS011;5652;48.406;10.820;2022-10-16T12:15:31;5.63;;;1.15;;
11191;SDS011;5652;48.406;10.820;2022-10-16T12:17:59;2.63;;;1.08;;
11191;SDS011;5652;48.406;10.820;2022-10-16T12:20:27;1.33;;;1.03;;
11191;SDS011;5652;48.406;10.820;2022-10-16T12:22:57;1.30;;;1.00;;
11191;SDS011;5652;48.406;10.820;2022-10-16T12:25:27;2.50;;;1.00;;
11191;SDS011;5652;48.406;10.820;2022-10-16T12:27:55;4.20;;;1.50;;
11191;SDS011;5652;48.406;10.820;2022-10-16T12:30:23;2.90;;;1.83;;
11191;SDS011;5652;48.406;10.820;2022-10-16T12:32:55;3.40;;;1.57;;
11191;SDS011;5652;48.406;10.820;2022-10-16T12:35:24;1.88;;;1.50;;
11191;SDS011;5652;48.406;10.820;2022-10-16T12:37:52;2.45;;;1.45;;
11191;SDS011;5652;48.406;10.820;2022-10-16T12:40:30;1.70;;;1.30;;
11191;SDS011;5652;48.406;10.820;2022-10-16T12:42:58;1.45;;;1.20;;
11191;SDS011;5652;48.406;10.820;2022-10-16T12:45:27;4.35;;;1.00;;
11191;SDS011;5652;48.406;10.820;2022-10-16T12:47:55;2.00;;;1.00;;
11191;SDS011;5652;48.406;10.820;2022-10-16T12:50:23;2.10;;;1.10;;
11191;SDS011;5652;48.406;10.820;2022-10-16T12:52:51;2.40;;;1.00;;
11191;SDS011;5652;48.406;10.820;2022-10-16T12:55:18;1.80;;;1.20;;
11191;SDS011;5652;48.406;10.820;2022-10-16T12:57:50;3.17;;;1.00;;
11191;SDS011;5652;48.406;10.820;2022-10-16T13:00:24;3.47;;;1.00;;
11191;SDS011;5652;48.406;10.820;2022-10-16T13:05:43;1.75;;;1.20;;
11191;SDS011;5652;48.406;10.820;2022-10-16T13:08:17;5.50;;;1.10;;
11191;SDS011;5652;48.406;10.820;2022-10-16T13:10:52;2.13;;;0.93;;
11191;SDS011;5652;48.406;10.820;2022-10-16T13:16:12;2.30;;;1.10;;
11191;SDS011;5652;48.406;10.820;2022-10-16T13:18:43;1.90;;;1.10;;
11191;SDS011;5652;48.406;10.820;2022-10-16T13:21:17;2.33;;;1.10;;
11191;SDS011;5652;48.406;10.820;2022-10-16T13:23:47;1.75;;;1.00;;
11191;SDS011;5652;48.406;10.820;2022-10-16T13:26:19;1.73;;;1.20;;
11191;SDS011;5652;48.406;10.820;2022-10-16T13:28:48;1.42;;;1.00;;
11191;SDS011;5652;48.406;10.820;2022-10-16T13:31:18;1.52;;;1.00;;
11191;SDS011;5652;48.406;10.820;2022-10-16T13:33:47;1.30;;;0.88;;
11191;SDS011;5652;48.406;10.820;2022-10-16T13:36:19;1.63;;;0.90;;
11191;SDS011;5652;48.406;10.820;2022-10-16T13:38:47;2.33;;;1.20;;
11191;SDS011;5652;48.406;10.820;2022-10-16T13:41:15;1.33;;;1.00;;
11191;SDS011;5652;48.406;10.820;2022-10-16T13:43:43;1.75;;;1.10;;
11191;SDS011;5652;48.406;10.820;2022-10-16T13:46:12;1.77;;;1.00;;
11191;SDS011;5652;48.406;10.820;2022-10-16T13:48:41;3.50;;;1.00;;
11191;SDS011;5652;48.406;10.820;2022-10-16T13:51:11;1.83;;;1.00;;
11191;SDS011;5652;48.406;10.820;2022-10-16T13:53:39;1.60;;;1.00;;
11191;SDS011;5652;48.406;10.820;2022-10-16T13:56:07;2.53;;;1.00;;
11191;SDS011;5652;48.406;10.820;2022-10-16T13:58:34;1.42;;;0.95;;
11191;SDS011;5652;48.406;10.820;2022-10-16T14:01:03;1.20;;;1.00;;
11191;SDS011;5652;48.406;10.820;2022-10-16T14:03:31;1.50;;;1.08;;
11191;SDS011;5652;48.406;10.820;2022-10-16T14:06:02;2.33;;;1.05;;
11191;SDS011;5652;48.406;10.820;2022-10-16T14:08:30;3.10;;;1.13;;
11191;SDS011;5652;48.406;10.820;2022-10-16T14:10:58;1.55;;;1.17;;
11191;SDS011;5652;48.406;10.820;2022-10-16T14:13:28;1.85;;;1.30;;
11191;SDS011;5652;48.406;10.820;2022-10-16T14:15:56;1.50;;;1.00;;
11191;SDS011;5652;48.406;10.820;2022-10-16T14:18:25;2.35;;;1.15;;
11191;SDS011;5652;48.406;10.820;2022-10-16T14:20:53;4.95;;;1.40;;
11191;SDS011;5652;48.406;10.820;2022-10-16T14:23:23;1.35;;;1.00;;
11191;SDS011;5652;48.406;10.820;2022-10-16T14:25:51;1.40;;;1.07;;
11191;SDS011;5652;48.406;10.820;2022-10-16T14:28:20;2.00;;;1.20;;
11191;SDS011;5652;48.406;10.820;2022-10-16T14:30:51;2.63;;;1.20;;
11191;SDS011;5652;48.406;10.820;2022-10-16T14:33:23;5.15;;;1.13;;
11191;SDS011;5652;48.406;10.820;2022-10-16T14:36:00;2.75;;;1.10;;
11191;SDS011;5652;48.406;10.820;2022-10-16T14:38:29;1.63;;;1.08;;
11191;SDS011;5652;48.406;10.820;2022-10-16T14:40:57;2.78;;;1.17;;
11191;SDS011;5652;48.406;10.820;2022-10-16T14:43:26;2.60;;;1.30;;
11191;SDS011;5652;48.406;10.820;2022-10-16T14:45:56;6.55;;;1.30;;
11191;SDS011;5652;48.406;10.820;2022-10-16T14:48:23;3.70;;;1.50;;
11191;SDS011;5652;48.406;10.820;2022-10-16T14:50:51;4.37;;;1.40;;
11191;SDS011;5652;48.406;10.820;2022-10-16T14:53:18;1.57;;;1.17;;
11191;SDS011;5652;48.406;10.820;2022-10-16T14:55:46;2.47;;;1.20;;
11191;SDS011;5652;48.406;10.820;2022-10-16T14:58:14;2.78;;;1.30;;
11191;SDS011;5652;48.406;10.820;2022-10-16T15:00:43;2.70;;;1.40;;
11191;SDS011;5652;48.406;10.820;2022-10-16T15:03:10;1.75;;;1.20;;
11191;SDS011;5652;48.406;10.820;2022-10-16T15:05:37;2.50;;;1.13;;
11191;SDS011;5652;48.406;10.820;2022-10-16T15:08:04;4.05;;;1.10;;
11191;SDS011;5652;48.406;10.820;2022-10-16T15:10:33;2.05;;;1.10;;
11191;SDS011;5652;48.406;10.820;2022-10-16T15:13:03;2.33;;;1.20;;
11191;SDS011;5652;48.406;10.820;2022-10-16T15:15:33;4.40;;;1.30;;